Baie-Sainte-Catherine, Canada
Current Conditions -  °F | °C
As of 2:00 PM on Saturday 25 Oct 2014 (Local Time) from CYBG Reporting Station
Broken Clouds Broken Clouds  
Wind Chill: 52°   Ceiling: 22000
Heat Index: 52°   Visibility: 25mi
Dew Point: 37°   Wind: 21mph
Humidity: 58%   Direction: 80°E
Pressure: 29.5"   Gusts: NA
Location:  48.1°N, 69.73°W
Report Text: CYBG 251800Z 08018KT 25SM SCT150 BKN220 11/03 A2950 RMK AC3CI2 SLP996
Loading
Personal Weather Stations






























Interactive Weather Map
Tropical Storm Tracking
New forecast layout! Learn more

10-Day Weather Forecast

Advertisements
Track Severe Weather on mobile